sensor_id;sensor_type;location;lat;lon;timestamp;temperature;humidity
17208;DHT22;8720;48.488;9.202;2024-03-02T00:01:41;9.30;55.70
17208;DHT22;8720;48.488;9.202;2024-03-02T00:04:08;9.30;55.80
17208;DHT22;8720;48.488;9.202;2024-03-02T00:06:36;9.20;55.60
17208;DHT22;8720;48.488;9.202;2024-03-02T00:09:04;9.30;55.80
17208;DHT22;8720;48.488;9.202;2024-03-02T00:11:36;9.20;55.80
17208;DHT22;8720;48.488;9.202;2024-03-02T00:14:03;9.20;55.90
17208;DHT22;8720;48.488;9.202;2024-03-02T00:16:31;9.20;55.80
17208;DHT22;8720;48.488;9.202;2024-03-02T00:19:01;9.10;55.70
17208;DHT22;8720;48.488;9.202;2024-03-02T00:21:30;9.10;55.80
17208;DHT22;8720;48.488;9.202;2024-03-02T00:23:58;9.10;55.90
17208;DHT22;8720;48.488;9.202;2024-03-02T00:26:29;9.10;55.90
17208;DHT22;8720;48.488;9.202;2024-03-02T00:28:57;9.00;55.90
17208;DHT22;8720;48.488;9.202;2024-03-02T00:31:26;9.00;56.00
17208;DHT22;8720;48.488;9.202;2024-03-02T00:33:53;9.00;56.60
17208;DHT22;8720;48.488;9.202;2024-03-02T00:36:24;9.00;56.00
17208;DHT22;8720;48.488;9.202;2024-03-02T00:38:54;8.90;56.00
17208;DHT22;8720;48.488;9.202;2024-03-02T00:41:24;8.90;56.00
17208;DHT22;8720;48.488;9.202;2024-03-02T00:43:59;8.90;56.10
17208;DHT22;8720;48.488;9.202;2024-03-02T00:46:31;8.90;56.20
17208;DHT22;8720;48.488;9.202;2024-03-02T00:49:03;9.00;56.30
17208;DHT22;8720;48.488;9.202;2024-03-02T00:51:33;9.00;56.40
17208;DHT22;8720;48.488;9.202;2024-03-02T00:54:04;9.00;56.30
17208;DHT22;8720;48.488;9.202;2024-03-02T00:56:33;9.00;56.30
17208;DHT22;8720;48.488;9.202;2024-03-02T00:59:03;8.90;56.10
17208;DHT22;8720;48.488;9.202;2024-03-02T01:01:31;8.90;56.20
17208;DHT22;8720;48.488;9.202;2024-03-02T01:03:58;8.90;56.10
17208;DHT22;8720;48.488;9.202;2024-03-02T01:06:26;8.90;56.10
17208;DHT22;8720;48.488;9.202;2024-03-02T01:08:53;8.90;56.70
17208;DHT22;8720;48.488;9.202;2024-03-02T01:11:20;8.90;56.10
17208;DHT22;8720;48.488;9.202;2024-03-02T01:13:48;8.80;56.00
17208;DHT22;8720;48.488;9.202;2024-03-02T01:16:17;8.80;56.10
17208;DHT22;8720;48.488;9.202;2024-03-02T01:18:45;8.80;56.20
17208;DHT22;8720;48.488;9.202;2024-03-02T01:21:12;8.70;56.10
17208;DHT22;8720;48.488;9.202;2024-03-02T01:23:40;8.70;56.10
17208;DHT22;8720;48.488;9.202;2024-03-02T01:26:07;8.70;56.20
17208;DHT22;8720;48.488;9.202;2024-03-02T01:28:35;8.70;56.20
17208;DHT22;8720;48.488;9.202;2024-03-02T01:31:02;8.60;56.20
17208;DHT22;8720;48.488;9.202;2024-03-02T01:33:31;8.60;56.20
17208;DHT22;8720;48.488;9.202;2024-03-02T01:35:58;8.60;56.30
17208;DHT22;8720;48.488;9.202;2024-03-02T01:38:26;8.60;56.30
17208;DHT22;8720;48.488;9.202;2024-03-02T01:40:54;8.60;56.30
17208;DHT22;8720;48.488;9.202;2024-03-02T01:43:22;8.50;56.30
17208;DHT22;8720;48.488;9.202;2024-03-02T01:45:49;8.50;56.30
17208;DHT22;8720;48.488;9.202;2024-03-02T01:48:17;8.50;56.40
17208;DHT22;8720;48.488;9.202;2024-03-02T01:50:46;8.40;56.30
17208;DHT22;8720;48.488;9.202;2024-03-02T01:53:13;8.40;56.40
17208;DHT22;8720;48.488;9.202;2024-03-02T01:55:41;8.30;56.20
17208;DHT22;8720;48.488;9.202;2024-03-02T01:58:08;8.30;56.20
17208;DHT22;8720;48.488;9.202;2024-03-02T02:00:36;8.30;56.30
17208;DHT22;8720;48.488;9.202;2024-03-02T02:03:03;8.20;56.30
17208;DHT22;8720;48.488;9.202;2024-03-02T02:05:32;8.20;56.30
17208;DHT22;8720;48.488;9.202;2024-03-02T02:08:04;8.10;56.20
17208;DHT22;8720;48.488;9.202;2024-03-02T02:10:31;8.10;56.30
17208;DHT22;8720;48.488;9.202;2024-03-02T02:12:59;8.00;56.20
17208;DHT22;8720;48.488;9.202;2024-03-02T02:15:28;8.00;56.20
17208;DHT22;8720;48.488;9.202;2024-03-02T02:17:57;7.90;56.20
17208;DHT22;8720;48.488;9.202;2024-03-02T02:20:25;7.90;56.20
17208;DHT22;8720;48.488;9.202;2024-03-02T02:22:58;7.80;56.30
17208;DHT22;8720;48.488;9.202;2024-03-02T02:25:27;7.80;56.40
17208;DHT22;8720;48.488;9.202;2024-03-02T02:27:56;7.70;56.30
17208;DHT22;8720;48.488;9.202;2024-03-02T02:30:26;7.70;56.40
17208;DHT22;8720;48.488;9.202;2024-03-02T02:32:54;7.60;56.40
17208;DHT22;8720;48.488;9.202;2024-03-02T02:35:21;7.60;56.40
17208;DHT22;8720;48.488;9.202;2024-03-02T02:37:52;7.60;56.50
17208;DHT22;8720;48.488;9.202;2024-03-02T02:40:23;7.50;56.50
17208;DHT22;8720;48.488;9.202;2024-03-02T02:42:50;7.50;56.60
17208;DHT22;8720;48.488;9.202;2024-03-02T02:45:18;7.40;56.50
17208;DHT22;8720;48.488;9.202;2024-03-02T02:47:45;7.40;56.50
17208;DHT22;8720;48.488;9.202;2024-03-02T02:50:13;7.30;56.50
17208;DHT22;8720;48.488;9.202;2024-03-02T02:52:41;7.30;56.50
17208;DHT22;8720;48.488;9.202;2024-03-02T02:55:10;7.20;56.50
17208;DHT22;8720;48.488;9.202;2024-03-02T02:57:40;7.20;56.50
17208;DHT22;8720;48.488;9.202;2024-03-02T03:00:11;7.10;56.60
17208;DHT22;8720;48.488;9.202;2024-03-02T03:02:53;7.10;56.70
17208;DHT22;8720;48.488;9.202;2024-03-02T03:05:20;7.00;56.50
17208;DHT22;8720;48.488;9.202;2024-03-02T03:07:48;7.00;56.60
17208;DHT22;8720;48.488;9.202;2024-03-02T03:10:16;6.90;56.60
17208;DHT22;8720;48.488;9.202;2024-03-02T03:12:45;6.90;56.80
17208;DHT22;8720;48.488;9.202;2024-03-02T03:15:13;6.90;56.90
17208;DHT22;8720;48.488;9.202;2024-03-02T03:17:42;6.80;56.90
17208;DHT22;8720;48.488;9.202;2024-03-02T03:20:09;6.80;57.00
17208;DHT22;8720;48.488;9.202;2024-03-02T03:22:38;6.70;57.00
17208;DHT22;8720;48.488;9.202;2024-03-02T03:25:06;6.70;57.10
17208;DHT22;8720;48.488;9.202;2024-03-02T03:27:34;6.70;57.40
17208;DHT22;8720;48.488;9.202;2024-03-02T03:30:03;6.70;57.50
17208;DHT22;8720;48.488;9.202;2024-03-02T03:32:31;6.60;57.60
17208;DHT22;8720;48.488;9.202;2024-03-02T03:34:58;6.60;57.50
17208;DHT22;8720;48.488;9.202;2024-03-02T03:37:26;6.60;57.40
17208;DHT22;8720;48.488;9.202;2024-03-02T03:39:58;6.60;57.40
17208;DHT22;8720;48.488;9.202;2024-03-02T03:42:25;6.50;57.40
17208;DHT22;8720;48.488;9.202;2024-03-02T03:44:52;6.50;57.40
17208;DHT22;8720;48.488;9.202;2024-03-02T03:47:21;6.50;57.40
17208;DHT22;8720;48.488;9.202;2024-03-02T03:49:48;6.40;57.40
17208;DHT22;8720;48.488;9.202;2024-03-02T03:52:15;6.40;57.30
17208;DHT22;8720;48.488;9.202;2024-03-02T03:54:43;6.40;57.40
17208;DHT22;8720;48.488;9.202;2024-03-02T03:57:10;6.30;57.50
17208;DHT22;8720;48.488;9.202;2024-03-02T03:59:37;6.30;57.60
17208;DHT22;8720;48.488;9.202;2024-03-02T04:02:05;6.30;57.70
17208;DHT22;8720;48.488;9.202;2024-03-02T04:04:34;6.30;57.80
17208;DHT22;8720;48.488;9.202;2024-03-02T04:07:01;6.30;58.00
17208;DHT22;8720;48.488;9.202;2024-03-02T04:09:29;6.30;58.00
17208;DHT22;8720;48.488;9.202;2024-03-02T04:11:56;6.30;58.70
17208;DHT22;8720;48.488;9.202;2024-03-02T04:14:23;6.30;58.20
17208;DHT22;8720;48.488;9.202;2024-03-02T04:16:51;6.30;58.30
17208;DHT22;8720;48.488;9.202;2024-03-02T04:19:18;6.30;58.40
17208;DHT22;8720;48.488;9.202;2024-03-02T04:21:47;6.30;58.40
17208;DHT22;8720;48.488;9.202;2024-03-02T04:24:14;6.30;58.60
17208;DHT22;8720;48.488;9.202;2024-03-02T04:26:41;6.30;58.40
17208;DHT22;8720;48.488;9.202;2024-03-02T04:29:09;6.30;58.20
17208;DHT22;8720;48.488;9.202;2024-03-02T04:31:36;6.30;58.00
17208;DHT22;8720;48.488;9.202;2024-03-02T04:34:03;6.30;58.00
17208;DHT22;8720;48.488;9.202;2024-03-02T04:36:30;6.20;57.90
17208;DHT22;8720;48.488;9.202;2024-03-02T04:38:59;6.20;58.00
17208;DHT22;8720;48.488;9.202;2024-03-02T04:41:26;6.20;58.30
17208;DHT22;8720;48.488;9.202;2024-03-02T04:43:54;6.20;58.50
17208;DHT22;8720;48.488;9.202;2024-03-02T04:46:21;6.20;58.50
17208;DHT22;8720;48.488;9.202;2024-03-02T04:48:50;6.20;58.40
17208;DHT22;8720;48.488;9.202;2024-03-02T04:51:21;6.20;58.20
17208;DHT22;8720;48.488;9.202;2024-03-02T04:53:48;6.20;58.00
17208;DHT22;8720;48.488;9.202;2024-03-02T04:56:17;6.20;58.00
17208;DHT22;8720;48.488;9.202;2024-03-02T04:59:06;6.10;58.10
17208;DHT22;8720;48.488;9.202;2024-03-02T05:01:33;6.10;58.10
17208;DHT22;8720;48.488;9.202;2024-03-02T05:04:01;6.10;58.30
17208;DHT22;8720;48.488;9.202;2024-03-02T05:06:28;6.10;58.60
17208;DHT22;8720;48.488;9.202;2024-03-02T05:08:55;6.10;58.90
17208;DHT22;8720;48.488;9.202;2024-03-02T05:11:24;6.10;59.30
17208;DHT22;8720;48.488;9.202;2024-03-02T05:14:09;6.20;59.80
17208;DHT22;8720;48.488;9.202;2024-03-02T05:16:36;6.30;59.90
17208;DHT22;8720;48.488;9.202;2024-03-02T05:19:04;6.30;60.00
17208;DHT22;8720;48.488;9.202;2024-03-02T05:21:33;6.40;60.10
17208;DHT22;8720;48.488;9.202;2024-03-02T05:24:00;6.50;60.10
17208;DHT22;8720;48.488;9.202;2024-03-02T05:26:29;6.50;59.90
17208;DHT22;8720;48.488;9.202;2024-03-02T05:28:56;6.60;59.80
17208;DHT22;8720;48.488;9.202;2024-03-02T05:31:24;6.60;60.00
17208;DHT22;8720;48.488;9.202;2024-03-02T05:33:51;6.70;59.40
17208;DHT22;8720;48.488;9.202;2024-03-02T05:36:19;6.70;59.20
17208;DHT22;8720;48.488;9.202;2024-03-02T05:38:46;6.70;59.00
17208;DHT22;8720;48.488;9.202;2024-03-02T05:41:14;6.70;58.90
17208;DHT22;8720;48.488;9.202;2024-03-02T05:43:42;6.80;58.90
17208;DHT22;8720;48.488;9.202;2024-03-02T05:46:10;6.70;58.80
17208;DHT22;8720;48.488;9.202;2024-03-02T05:48:37;6.80;58.70
17208;DHT22;8720;48.488;9.202;2024-03-02T05:51:05;6.80;58.60
17208;DHT22;8720;48.488;9.202;2024-03-02T05:53:32;6.80;58.50
17208;DHT22;8720;48.488;9.202;2024-03-02T05:55:59;6.80;58.30
17208;DHT22;8720;48.488;9.202;2024-03-02T05:58:27;6.80;58.20
17208;DHT22;8720;48.488;9.202;2024-03-02T06:01:05;6.70;58.10
17208;DHT22;8720;48.488;9.202;2024-03-02T06:03:32;6.70;58.10
17208;DHT22;8720;48.488;9.202;2024-03-02T06:05:59;6.70;57.70
17208;DHT22;8720;48.488;9.202;2024-03-02T06:08:27;6.60;57.20
17208;DHT22;8720;48.488;9.202;2024-03-02T06:10:54;6.60;57.00
17208;DHT22;8720;48.488;9.202;2024-03-02T06:13:22;6.50;56.80
17208;DHT22;8720;48.488;9.202;2024-03-02T06:15:51;6.40;56.60
17208;DHT22;8720;48.488;9.202;2024-03-02T06:18:20;6.30;56.30
17208;DHT22;8720;48.488;9.202;2024-03-02T06:20:47;6.20;56.20
17208;DHT22;8720;48.488;9.202;2024-03-02T06:23:15;6.10;56.20
17208;DHT22;8720;48.488;9.202;2024-03-02T06:25:42;6.10;56.30
17208;DHT22;8720;48.488;9.202;2024-03-02T06:28:09;6.00;56.40
17208;DHT22;8720;48.488;9.202;2024-03-02T06:30:36;6.00;56.70
17208;DHT22;8720;48.488;9.202;2024-03-02T06:33:04;5.90;56.90
17208;DHT22;8720;48.488;9.202;2024-03-02T06:35:33;5.90;57.40
17208;DHT22;8720;48.488;9.202;2024-03-02T06:38:01;5.90;57.80
17208;DHT22;8720;48.488;9.202;2024-03-02T06:40:28;6.00;58.20
17208;DHT22;8720;48.488;9.202;2024-03-02T06:42:56;6.00;58.60
17208;DHT22;8720;48.488;9.202;2024-03-02T06:45:23;6.10;59.10
17208;DHT22;8720;48.488;9.202;2024-03-02T06:47:50;6.20;59.40
17208;DHT22;8720;48.488;9.202;2024-03-02T06:50:18;6.30;59.70
17208;DHT22;8720;48.488;9.202;2024-03-02T06:52:46;6.40;60.00
17208;DHT22;8720;48.488;9.202;2024-03-02T06:55:14;6.60;60.10
17208;DHT22;8720;48.488;9.202;2024-03-02T06:57:41;6.70;60.10
17208;DHT22;8720;48.488;9.202;2024-03-02T07:00:09;6.90;60.10
17208;DHT22;8720;48.488;9.202;2024-03-02T07:02:38;7.00;60.30
17208;DHT22;8720;48.488;9.202;2024-03-02T07:05:07;7.20;60.10
17208;DHT22;8720;48.488;9.202;2024-03-02T07:07:35;7.30;59.50
17208;DHT22;8720;48.488;9.202;2024-03-02T07:10:04;7.50;59.00
17208;DHT22;8720;48.488;9.202;2024-03-02T07:12:33;7.60;58.80
17208;DHT22;8720;48.488;9.202;2024-03-02T07:15:00;7.60;58.90
17208;DHT22;8720;48.488;9.202;2024-03-02T07:17:41;7.80;59.30
17208;DHT22;8720;48.488;9.202;2024-03-02T07:20:09;7.90;59.60
17208;DHT22;8720;48.488;9.202;2024-03-02T07:22:37;8.00;59.80
17208;DHT22;8720;48.488;9.202;2024-03-02T07:25:07;8.30;60.10
17208;DHT22;8720;48.488;9.202;2024-03-02T07:27:34;8.50;60.10
17208;DHT22;8720;48.488;9.202;2024-03-02T07:30:02;8.70;60.00
17208;DHT22;8720;48.488;9.202;2024-03-02T07:32:30;9.00;59.60
17208;DHT22;8720;48.488;9.202;2024-03-02T07:34:57;9.20;59.80
17208;DHT22;8720;48.488;9.202;2024-03-02T07:37:27;9.40;58.80
17208;DHT22;8720;48.488;9.202;2024-03-02T07:39:54;9.60;58.40
17208;DHT22;8720;48.488;9.202;2024-03-02T07:42:23;9.70;57.90
17208;DHT22;8720;48.488;9.202;2024-03-02T07:44:51;9.90;57.50
17208;DHT22;8720;48.488;9.202;2024-03-02T07:47:18;10.00;56.30
17208;DHT22;8720;48.488;9.202;2024-03-02T07:49:46;10.10;55.90
17208;DHT22;8720;48.488;9.202;2024-03-02T07:52:13;10.20;55.80
17208;DHT22;8720;48.488;9.202;2024-03-02T07:54:41;10.20;55.40
17208;DHT22;8720;48.488;9.202;2024-03-02T07:57:08;10.30;55.20
17208;DHT22;8720;48.488;9.202;2024-03-02T07:59:37;10.40;55.10
17208;DHT22;8720;48.488;9.202;2024-03-02T08:02:05;10.40;54.80
17208;DHT22;8720;48.488;9.202;2024-03-02T08:04:33;10.40;54.70
17208;DHT22;8720;48.488;9.202;2024-03-02T08:07:01;10.50;54.60
17208;DHT22;8720;48.488;9.202;2024-03-02T08:09:29;10.50;54.50
17208;DHT22;8720;48.488;9.202;2024-03-02T08:11:57;10.60;54.50
17208;DHT22;8720;48.488;9.202;2024-03-02T08:14:24;10.60;54.40
17208;DHT22;8720;48.488;9.202;2024-03-02T08:16:53;10.70;54.40
17208;DHT22;8720;48.488;9.202;2024-03-02T08:19:21;10.70;54.30
17208;DHT22;8720;48.488;9.202;2024-03-02T08:21:48;10.80;54.50
17208;DHT22;8720;48.488;9.202;2024-03-02T08:24:15;10.80;54.30
17208;DHT22;8720;48.488;9.202;2024-03-02T08:26:43;10.90;54.30
17208;DHT22;8720;48.488;9.202;2024-03-02T08:29:10;11.00;54.30
17208;DHT22;8720;48.488;9.202;2024-03-02T08:31:38;11.10;54.40
17208;DHT22;8720;48.488;9.202;2024-03-02T08:34:07;11.20;54.30
17208;DHT22;8720;48.488;9.202;2024-03-02T08:36:35;11.30;54.10
17208;DHT22;8720;48.488;9.202;2024-03-02T08:39:02;11.40;54.00
17208;DHT22;8720;48.488;9.202;2024-03-02T08:41:41;11.50;53.80
17208;DHT22;8720;48.488;9.202;2024-03-02T08:44:09;11.60;53.60
17208;DHT22;8720;48.488;9.202;2024-03-02T08:46:36;11.60;53.30
17208;DHT22;8720;48.488;9.202;2024-03-02T08:49:04;11.70;53.10
17208;DHT22;8720;48.488;9.202;2024-03-02T08:51:33;11.80;53.00
17208;DHT22;8720;48.488;9.202;2024-03-02T08:54:03;11.90;52.90
17208;DHT22;8720;48.488;9.202;2024-03-02T08:56:31;11.90;51.10
17208;DHT22;8720;48.488;9.202;2024-03-02T08:58:59;11.90;52.00
17208;DHT22;8720;48.488;9.202;2024-03-02T09:01:26;12.00;52.30
17208;DHT22;8720;48.488;9.202;2024-03-02T09:03:54;12.10;52.20
17208;DHT22;8720;48.488;9.202;2024-03-02T09:06:21;12.20;52.30
17208;DHT22;8720;48.488;9.202;2024-03-02T09:08:50;12.20;52.00
17208;DHT22;8720;48.488;9.202;2024-03-02T09:11:18;12.20;51.80
17208;DHT22;8720;48.488;9.202;2024-03-02T09:13:45;12.20;51.80
17208;DHT22;8720;48.488;9.202;2024-03-02T09:16:12;12.20;51.90
17208;DHT22;8720;48.488;9.202;2024-03-02T09:18:39;12.20;52.10
17208;DHT22;8720;48.488;9.202;2024-03-02T09:21:07;12.20;52.30
17208;DHT22;8720;48.488;9.202;2024-03-02T09:23:34;12.20;52.30
17208;DHT22;8720;48.488;9.202;2024-03-02T09:26:03;12.20;52.30
17208;DHT22;8720;48.488;9.202;2024-03-02T09:28:30;12.20;52.20
17208;DHT22;8720;48.488;9.202;2024-03-02T09:30:58;12.30;52.20
17208;DHT22;8720;48.488;9.202;2024-03-02T09:33:27;12.30;52.10
17208;DHT22;8720;48.488;9.202;2024-03-02T09:35:55;12.30;52.10
17208;DHT22;8720;48.488;9.202;2024-03-02T09:38:22;12.30;52.20
17208;DHT22;8720;48.488;9.202;2024-03-02T09:40:49;12.30;52.10
17208;DHT22;8720;48.488;9.202;2024-03-02T09:43:18;12.40;52.30
17208;DHT22;8720;48.488;9.202;2024-03-02T09:45:46;12.40;52.20
17208;DHT22;8720;48.488;9.202;2024-03-02T09:48:13;12.50;52.30
17208;DHT22;8720;48.488;9.202;2024-03-02T09:50:44;12.60;52.20
17208;DHT22;8720;48.488;9.202;2024-03-02T09:53:12;12.70;52.10
17208;DHT22;8720;48.488;9.202;2024-03-02T09:55:41;12.90;51.90
17208;DHT22;8720;48.488;9.202;2024-03-02T09:58:13;13.00;51.50
17208;DHT22;8720;48.488;9.202;2024-03-02T10:00:42;13.20;51.60
17208;DHT22;8720;48.488;9.202;2024-03-02T10:03:12;13.30;51.20
17208;DHT22;8720;48.488;9.202;2024-03-02T10:05:40;13.50;51.00
17208;DHT22;8720;48.488;9.202;2024-03-02T10:08:07;13.60;51.10
17208;DHT22;8720;48.488;9.202;2024-03-02T10:10:36;13.70;50.90
17208;DHT22;8720;48.488;9.202;2024-03-02T10:13:06;13.90;50.80
17208;DHT22;8720;48.488;9.202;2024-03-02T10:15:36;14.00;50.20
17208;DHT22;8720;48.488;9.202;2024-03-02T10:18:09;14.20;50.10
17208;DHT22;8720;48.488;9.202;2024-03-02T10:20:39;14.20;49.60
17208;DHT22;8720;48.488;9.202;2024-03-02T10:23:11;14.40;49.20
17208;DHT22;8720;48.488;9.202;2024-03-02T10:25:39;14.50;49.00
17208;DHT22;8720;48.488;9.202;2024-03-02T10:28:07;14.60;49.30
17208;DHT22;8720;48.488;9.202;2024-03-02T10:30:35;14.70;49.10
17208;DHT22;8720;48.488;9.202;2024-03-02T10:33:03;14.80;49.10
17208;DHT22;8720;48.488;9.202;2024-03-02T10:35:34;14.90;48.60
17208;DHT22;8720;48.488;9.202;2024-03-02T10:38:04;15.00;48.10
17208;DHT22;8720;48.488;9.202;2024-03-02T10:40:32;15.10;48.00
17208;DHT22;8720;48.488;9.202;2024-03-02T10:43:01;15.10;47.90
17208;DHT22;8720;48.488;9.202;2024-03-02T10:45:31;15.20;47.70
17208;DHT22;8720;48.488;9.202;2024-03-02T10:48:00;15.30;47.70
17208;DHT22;8720;48.488;9.202;2024-03-02T10:50:31;15.40;47.10
17208;DHT22;8720;48.488;9.202;2024-03-02T10:53:00;15.40;47.00
17208;DHT22;8720;48.488;9.202;2024-03-02T10:55:27;15.50;46.70
17208;DHT22;8720;48.488;9.202;2024-03-02T10:57:55;15.60;46.80
17208;DHT22;8720;48.488;9.202;2024-03-02T11:00:25;15.70;46.70
17208;DHT22;8720;48.488;9.202;2024-03-02T11:02:57;15.70;46.20
17208;DHT22;8720;48.488;9.202;2024-03-02T11:05:33;15.80;46.20
17208;DHT22;8720;48.488;9.202;2024-03-02T11:08:07;15.90;46.20
17208;DHT22;8720;48.488;9.202;2024-03-02T11:10:45;16.00;45.40
17208;DHT22;8720;48.488;9.202;2024-03-02T11:13:22;16.00;45.40
17208;DHT22;8720;48.488;9.202;2024-03-02T11:16:02;16.10;44.80
17208;DHT22;8720;48.488;9.202;2024-03-02T11:18:33;16.20;45.00
17208;DHT22;8720;48.488;9.202;2024-03-02T11:21:02;16.20;44.90
17208;DHT22;8720;48.488;9.202;2024-03-02T11:23:35;16.30;44.60
17208;DHT22;8720;48.488;9.202;2024-03-02T11:26:17;16.30;43.90
17208;DHT22;8720;48.488;9.202;2024-03-02T11:28:45;16.40;43.10
17208;DHT22;8720;48.488;9.202;2024-03-02T11:31:13;16.40;44.40
17208;DHT22;8720;48.488;9.202;2024-03-02T11:33:40;16.50;44.00
17208;DHT22;8720;48.488;9.202;2024-03-02T11:36:08;16.50;43.70
17208;DHT22;8720;48.488;9.202;2024-03-02T11:38:37;16.60;43.80
17208;DHT22;8720;48.488;9.202;2024-03-02T11:41:07;16.60;43.40
17208;DHT22;8720;48.488;9.202;2024-03-02T11:43:37;16.70;43.40
17208;DHT22;8720;48.488;9.202;2024-03-02T11:46:06;16.70;43.20
17208;DHT22;8720;48.488;9.202;2024-03-02T11:48:36;16.80;43.20
17208;DHT22;8720;48.488;9.202;2024-03-02T11:51:04;16.90;42.80
17208;DHT22;8720;48.488;9.202;2024-03-02T11:53:31;16.90;42.90
17208;DHT22;8720;48.488;9.202;2024-03-02T11:56:02;17.00;42.70
17208;DHT22;8720;48.488;9.202;2024-03-02T11:58:31;17.00;42.30
17208;DHT22;8720;48.488;9.202;2024-03-02T12:01:03;17.00;42.50
17208;DHT22;8720;48.488;9.202;2024-03-02T12:03:32;17.10;42.60
17208;DHT22;8720;48.488;9.202;2024-03-02T12:06:02;17.10;42.40
17208;DHT22;8720;48.488;9.202;2024-03-02T12:08:31;17.20;42.20
17208;DHT22;8720;48.488;9.202;2024-03-02T12:11:00;17.20;42.50
17208;DHT22;8720;48.488;9.202;2024-03-02T12:13:29;17.30;42.30
17208;DHT22;8720;48.488;9.202;2024-03-02T12:15:57;17.30;42.30
17208;DHT22;8720;48.488;9.202;2024-03-02T12:18:24;17.40;42.20
17208;DHT22;8720;48.488;9.202;2024-03-02T12:20:52;17.50;41.90
17208;DHT22;8720;48.488;9.202;2024-03-02T12:23:23;17.50;42.00
17208;DHT22;8720;48.488;9.202;2024-03-02T12:25:50;17.60;41.90
17208;DHT22;8720;48.488;9.202;2024-03-02T12:28:19;17.60;41.70
17208;DHT22;8720;48.488;9.202;2024-03-02T12:30:47;17.70;41.70
17208;DHT22;8720;48.488;9.202;2024-03-02T12:33:16;17.70;41.80
17208;DHT22;8720;48.488;9.202;2024-03-02T12:35:44;17.80;41.60
17208;DHT22;8720;48.488;9.202;2024-03-02T12:38:12;17.80;41.40
17208;DHT22;8720;48.488;9.202;2024-03-02T12:40:39;17.80;41.30
17208;DHT22;8720;48.488;9.202;2024-03-02T12:43:07;17.90;41.20
17208;DHT22;8720;48.488;9.202;2024-03-02T12:45:35;17.90;40.70
17208;DHT22;8720;48.488;9.202;2024-03-02T12:48:04;17.90;40.50
17208;DHT22;8720;48.488;9.202;2024-03-02T12:50:33;17.90;40.70
17208;DHT22;8720;48.488;9.202;2024-03-02T12:53:01;18.00;40.70
17208;DHT22;8720;48.488;9.202;2024-03-02T12:55:29;18.00;40.60
17208;DHT22;8720;48.488;9.202;2024-03-02T12:57:57;18.00;40.50
17208;DHT22;8720;48.488;9.202;2024-03-02T13:00:25;18.00;40.30
17208;DHT22;8720;48.488;9.202;2024-03-02T13:02:53;18.00;41.00
17208;DHT22;8720;48.488;9.202;2024-03-02T13:05:30;18.00;39.90
17208;DHT22;8720;48.488;9.202;2024-03-02T13:07:58;18.00;40.10
17208;DHT22;8720;48.488;9.202;2024-03-02T13:10:26;18.10;40.30
17208;DHT22;8720;48.488;9.202;2024-03-02T13:12:55;18.10;40.10
17208;DHT22;8720;48.488;9.202;2024-03-02T13:15:23;18.10;39.90
17208;DHT22;8720;48.488;9.202;2024-03-02T13:17:50;18.20;40.00
17208;DHT22;8720;48.488;9.202;2024-03-02T13:20:19;18.20;39.80
17208;DHT22;8720;48.488;9.202;2024-03-02T13:22:46;18.20;39.30
17208;DHT22;8720;48.488;9.202;2024-03-02T13:25:14;18.20;39.30
17208;DHT22;8720;48.488;9.202;2024-03-02T13:27:41;18.20;39.10
17208;DHT22;8720;48.488;9.202;2024-03-02T13:30:09;18.20;39.00
17208;DHT22;8720;48.488;9.202;2024-03-02T13:32:37;18.20;38.90
17208;DHT22;8720;48.488;9.202;2024-03-02T13:35:05;18.30;38.90
17208;DHT22;8720;48.488;9.202;2024-03-02T13:37:33;18.30;38.90
17208;DHT22;8720;48.488;9.202;2024-03-02T13:40:01;18.30;38.80
17208;DHT22;8720;48.488;9.202;2024-03-02T13:42:33;18.30;39.00
17208;DHT22;8720;48.488;9.202;2024-03-02T13:45:00;18.30;38.20
17208;DHT22;8720;48.488;9.202;2024-03-02T13:47:30;18.30;38.50
17208;DHT22;8720;48.488;9.202;2024-03-02T13:49:57;18.30;38.50
17208;DHT22;8720;48.488;9.202;2024-03-02T13:52:24;18.20;38.20
17208;DHT22;8720;48.488;9.202;2024-03-02T13:54:53;18.20;38.30
17208;DHT22;8720;48.488;9.202;2024-03-02T13:57:21;18.20;38.10
17208;DHT22;8720;48.488;9.202;2024-03-02T13:59:48;18.20;38.20
17208;DHT22;8720;48.488;9.202;2024-03-02T14:02:17;18.20;38.00
17208;DHT22;8720;48.488;9.202;2024-03-02T14:04:45;18.20;37.90
17208;DHT22;8720;48.488;9.202;2024-03-02T14:07:15;18.10;37.70
17208;DHT22;8720;48.488;9.202;2024-03-02T14:09:42;18.10;37.70
17208;DHT22;8720;48.488;9.202;2024-03-02T14:12:11;18.00;37.60
17208;DHT22;8720;48.488;9.202;2024-03-02T14:14:39;18.00;37.60
17208;DHT22;8720;48.488;9.202;2024-03-02T14:17:07;18.00;37.60
17208;DHT22;8720;48.488;9.202;2024-03-02T14:19:40;17.90;37.60
17208;DHT22;8720;48.488;9.202;2024-03-02T14:22:07;17.90;37.50
17208;DHT22;8720;48.488;9.202;2024-03-02T14:24:35;17.90;37.70
17208;DHT22;8720;48.488;9.202;2024-03-02T14:27:02;17.90;37.70
17208;DHT22;8720;48.488;9.202;2024-03-02T14:29:32;17.90;37.60
17208;DHT22;8720;48.488;9.202;2024-03-02T14:32:02;17.90;37.50
17208;DHT22;8720;48.488;9.202;2024-03-02T14:34:30;17.90;37.60
17208;DHT22;8720;48.488;9.202;2024-03-02T14:36:57;17.90;37.20
17208;DHT22;8720;48.488;9.202;2024-03-02T14:39:25;17.90;37.00
17208;DHT22;8720;48.488;9.202;2024-03-02T14:41:52;17.90;36.80
17208;DHT22;8720;48.488;9.202;2024-03-02T14:44:20;17.90;36.60
17208;DHT22;8720;48.488;9.202;2024-03-02T14:46:49;17.90;36.30
17208;DHT22;8720;48.488;9.202;2024-03-02T14:49:17;17.90;36.20
17208;DHT22;8720;48.488;9.202;2024-03-02T14:51:45;17.90;36.30
17208;DHT22;8720;48.488;9.202;2024-03-02T14:54:12;17.90;36.30
17208;DHT22;8720;48.488;9.202;2024-03-02T14:56:39;17.90;36.00
17208;DHT22;8720;48.488;9.202;2024-03-02T14:59:07;18.00;36.00
17208;DHT22;8720;48.488;9.202;2024-03-02T15:01:36;18.00;35.50
17208;DHT22;8720;48.488;9.202;2024-03-02T15:04:06;17.90;35.20
17208;DHT22;8720;48.488;9.202;2024-03-02T15:06:33;17.90;34.70
17208;DHT22;8720;48.488;9.202;2024-03-02T15:09:01;17.90;34.80
17208;DHT22;8720;48.488;9.202;2024-03-02T15:11:28;17.90;34.70
17208;DHT22;8720;48.488;9.202;2024-03-02T15:13:56;17.90;34.50
17208;DHT22;8720;48.488;9.202;2024-03-02T15:16:24;17.80;34.30
17208;DHT22;8720;48.488;9.202;2024-03-02T15:18:52;17.80;34.00
17208;DHT22;8720;48.488;9.202;2024-03-02T15:21:20;17.70;33.80
17208;DHT22;8720;48.488;9.202;2024-03-02T15:23:48;17.70;33.40
17208;DHT22;8720;48.488;9.202;2024-03-02T15:26:16;17.60;33.50
17208;DHT22;8720;48.488;9.202;2024-03-02T15:28:43;17.60;33.40
17208;DHT22;8720;48.488;9.202;2024-03-02T15:31:11;17.50;33.50
17208;DHT22;8720;48.488;9.202;2024-03-02T15:33:38;17.40;33.50
17208;DHT22;8720;48.488;9.202;2024-03-02T15:36:07;17.40;33.60
17208;DHT22;8720;48.488;9.202;2024-03-02T15:38:36;17.30;33.10
17208;DHT22;8720;48.488;9.202;2024-03-02T15:41:03;17.20;32.70
17208;DHT22;8720;48.488;9.202;2024-03-02T15:43:31;17.10;32.80
17208;DHT22;8720;48.488;9.202;2024-03-02T15:46:02;17.10;32.90
17208;DHT22;8720;48.488;9.202;2024-03-02T15:48:29;17.00;33.00
17208;DHT22;8720;48.488;9.202;2024-03-02T15:50:58;17.00;33.20
17208;DHT22;8720;48.488;9.202;2024-03-02T15:53:26;16.90;33.40
17208;DHT22;8720;48.488;9.202;2024-03-02T15:55:55;16.80;33.40
17208;DHT22;8720;48.488;9.202;2024-03-02T15:58:22;16.80;33.60
17208;DHT22;8720;48.488;9.202;2024-03-02T16:00:50;16.80;33.90
17208;DHT22;8720;48.488;9.202;2024-03-02T16:03:17;16.70;33.90